Time;durP1;ratioP1;P1;durP2;ratioP2;P2;SDS_P1;SDS_P2;PMS_P1;PMS_P2;Temp;Humidity;BMP_temperature;BMP_pressure;BME280_temperature;BME280_humidity;BME280_pressure;Samples;Min_cycle;Max_cycle;Signal;HPM_P1;HPM_P2
2019/05/07 00:00:18;;;;;;;;;;;;;;;8.08;65.94;100707.70;;;;-53
2019/05/07 00:01:19;;;;;;;;;;;;;;;8.07;65.91;100712.20;;;;-52
2019/05/07 00:02:20;;;;;;;;;;;;;;;8.05;65.62;100706.50;;;;-53
2019/05/07 00:03:14;;;;;;;;;;;;;;;8.04;66.02;100703.20;;;;-52
2019/05/07 00:04:13;;;;;;;;;;;;;;;8.02;65.82;100701.80;;;;-52
2019/05/07 00:05:13;;;;;;;;;;;;;;;8.01;65.58;100706.20;;;;-53
2019/05/07 00:06:14;;;;;;;;;;;;;;;7.99;65.65;100706.30;;;;-52
2019/05/07 00:07:14;;;;;;;;;;;;;;;7.98;66.61;100702.60;;;;-51
2019/05/07 00:08:13;;;;;;;;;;;;;;;7.97;66.44;100706.90;;;;-49
2019/05/07 00:09:13;;;;;;;;;;;;;;;7.96;67.30;100705.50;;;;-52
2019/05/07 00:10:14;;;;;;;;;;;;;;;7.94;67.40;100702.00;;;;-51
2019/05/07 00:11:13;;;;;;;;;;;;;;;7.90;66.98;100699.30;;;;-50
2019/05/07 00:12:13;;;;;;;;;;;;;;;7.86;66.75;100697.90;;;;-50
2019/05/07 00:13:14;;;;;;;;;;;;;;;7.84;66.61;100696.10;;;;-52
2019/05/07 00:14:13;;;;;;;;;;;;;;;7.84;67.54;100694.40;;;;-52
2019/05/07 00:15:14;;;;;;;;;;;;;;;7.82;67.71;100695.50;;;;-52
2019/05/07 00:16:13;;;;;;;;;;;;;;;7.78;67.53;100693.20;;;;-50
2019/05/07 00:17:14;;;;;;;;;;;;;;;7.77;67.03;100691.00;;;;-52
2019/05/07 00:18:13;;;;;;;;;;;;;;;7.75;67.01;100692.70;;;;-52
2019/05/07 00:19:13;;;;;;;;;;;;;;;7.74;66.84;100688.00;;;;-52
2019/05/07 00:20:13;;;;;;;;;;;;;;;7.74;67.39;100691.00;;;;-52
2019/05/07 00:21:13;;;;;;;;;;;;;;;7.74;68.09;100689.40;;;;-52
2019/05/07 00:22:13;;;;;;;;;;;;;;;7.74;67.82;100684.20;;;;-52
2019/05/07 00:23:13;;;;;;;;;;;;;;;7.74;67.41;100684.90;;;;-51
2019/05/07 00:24:13;;;;;;;;;;;;;;;7.72;67.48;100684.60;;;;-52
2019/05/07 00:25:13;;;;;;;;;;;;;;;7.71;67.24;100687.80;;;;-52
2019/05/07 00:26:14;;;;;;;;;;;;;;;7.70;67.16;100684.80;;;;-52
2019/05/07 00:27:14;;;;;;;;;;;;;;;7.69;67.03;100684.20;;;;-50
2019/05/07 00:28:13;;;;;;;;;;;;;;;7.67;67.07;100681.70;;;;-51
2019/05/07 00:29:14;;;;;;;;;;;;;;;7.64;66.90;100677.80;;;;-51
2019/05/07 00:30:13;;;;;;;;;;;;;;;7.61;66.81;100679.70;;;;-50
2019/05/07 00:31:14;;;;;;;;;;;;;;;7.58;66.52;100680.90;;;;-50
2019/05/07 00:32:13;;;;;;;;;;;;;;;7.57;67.50;100681.50;;;;-50
2019/05/07 00:33:13;;;;;;;;;;;;;;;7.57;68.25;100683.20;;;;-50
2019/05/07 00:34:14;;;;;;;;;;;;;;;7.57;67.44;100684.00;;;;-49
2019/05/07 00:35:17;;;;;;;;;;;;;;;7.56;67.04;100680.50;;;;-49
2019/05/07 00:36:27;;;;;;;;;;;;;;;7.56;67.22;100679.90;;;;-51
2019/05/07 00:38:01;;;;;;;;;;;;;;;7.55;67.76;100677.50;;;;-50
2019/05/07 00:38:14;;;;;;;;;;;;;;;7.53;67.16;100674.10;;;;-50
2019/05/07 00:39:36;;;;;;;;;;;;;;;7.52;67.23;100676.00;;;;-52
2019/05/07 00:41:08;;;;;;;;;;;;;;;7.53;67.93;100676.80;;;;-52
2019/05/07 00:41:23;;;;;;;;;;;;;;;7.53;67.85;100676.90;;;;-50
2019/05/07 00:42:22;;;;;;;;;;;;;;;7.52;68.38;100673.40;;;;-51
2019/05/07 00:43:24;;;;;;;;;;;;;;;7.51;67.42;100677.40;;;;-52
2019/05/07 00:44:14;;;;;;;;;;;;;;;7.47;68.32;100674.50;;;;-50
2019/05/07 00:45:23;;;;;;;;;;;;;;;7.48;67.53;100671.70;;;;-52
2019/05/07 00:46:22;;;;;;;;;;;;;;;7.47;67.12;100672.80;;;;-51
2019/05/07 00:47:14;;;;;;;;;;;;;;;7.47;66.97;100669.90;;;;-53
2019/05/07 00:48:13;;;;;;;;;;;;;;;7.46;67.49;100672.40;;;;-53
2019/05/07 00:49:14;;;;;;;;;;;;;;;7.45;67.88;100668.30;;;;-53
2019/05/07 00:50:24;;;;;;;;;;;;;;;7.43;68.04;100667.70;;;;-50
2019/05/07 00:51:26;;;;;;;;;;;;;;;7.42;67.26;100669.00;;;;-53
2019/05/07 00:52:14;;;;;;;;;;;;;;;7.41;67.26;100667.00;;;;-52
2019/05/07 00:53:13;;;;;;;;;;;;;;;7.41;67.71;100666.90;;;;-53
2019/05/07 00:54:14;;;;;;;;;;;;;;;7.39;67.69;100666.40;;;;-53
2019/05/07 00:55:14;;;;;;;;;;;;;;;7.38;67.70;100667.30;;;;-53
2019/05/07 00:56:13;;;;;;;;;;;;;;;7.37;67.80;100665.80;;;;-50
2019/05/07 00:57:13;;;;;;;;;;;;;;;7.36;67.79;100668.50;;;;-50
2019/05/07 00:58:13;;;;;;;;;;;;;;;7.35;68.09;100662.00;;;;-51
2019/05/07 00:59:13;;;;;;;;;;;;;;;7.35;68.23;100661.70;;;;-51
2019/05/07 01:00:14;;;;;;;;;;;;;;;7.34;68.03;100664.10;;;;-52
2019/05/07 01:01:14;;;;;;;;;;;;;;;7.32;67.60;100662.30;;;;-53
2019/05/07 01:02:14;;;;;;;;;;;;;;;7.31;67.58;100666.00;;;;-53
2019/05/07 01:03:14;;;;;;;;;;;;;;;7.26;68.04;100661.40;;;;-51
2019/05/07 01:04:14;;;;;;;;;;;;;;;7.24;67.72;100662.40;;;;-49
2019/05/07 01:05:14;;;;;;;;;;;;;;;7.21;67.41;100658.30;;;;-51
2019/05/07 01:06:14;;;;;;;;;;;;;;;7.18;67.50;100658.20;;;;-51
2019/05/07 01:07:14;;;;;;;;;;;;;;;7.15;67.26;100656.70;;;;-51
2019/05/07 01:08:14;;;;;;;;;;;;;;;7.13;67.80;100654.60;;;;-51
2019/05/07 01:09:14;;;;;;;;;;;;;;;7.12;67.15;100658.80;;;;-51
2019/05/07 01:10:14;;;;;;;;;;;;;;;7.11;68.01;100657.90;;;;-51
2019/05/07 01:11:14;;;;;;;;;;;;;;;7.09;67.67;100656.60;;;;-50
2019/05/07 01:12:14;;;;;;;;;;;;;;;7.07;67.91;100656.70;;;;-50
2019/05/07 01:13:14;;;;;;;;;;;;;;;7.06;68.05;100659.90;;;;-50
2019/05/07 01:14:14;;;;;;;;;;;;;;;7.04;68.41;100659.40;;;;-50
2019/05/07 01:15:14;;;;;;;;;;;;;;;7.02;68.33;100657.50;;;;-50
2019/05/07 01:16:14;;;;;;;;;;;;;;;6.99;68.88;100659.90;;;;-51
2019/05/07 01:17:14;;;;;;;;;;;;;;;6.99;69.03;100658.40;;;;-52
2019/05/07 01:18:14;;;;;;;;;;;;;;;6.99;68.85;100657.90;;;;-50
2019/05/07 01:19:14;;;;;;;;;;;;;;;6.99;68.97;100656.80;;;;-50
2019/05/07 01:20:14;;;;;;;;;;;;;;;6.98;69.46;100658.00;;;;-49
2019/05/07 01:21:14;;;;;;;;;;;;;;;6.97;68.62;100655.10;;;;-52
2019/05/07 01:22:14;;;;;;;;;;;;;;;6.94;68.39;100657.30;;;;-50
2019/05/07 01:23:14;;;;;;;;;;;;;;;6.94;69.05;100653.90;;;;-51
2019/05/07 01:24:14;;;;;;;;;;;;;;;6.94;68.97;100654.40;;;;-49
2019/05/07 01:25:14;;;;;;;;;;;;;;;6.94;68.78;100655.00;;;;-50
2019/05/07 01:26:14;;;;;;;;;;;;;;;6.92;68.26;100655.50;;;;-51
2019/05/07 01:27:14;;;;;;;;;;;;;;;6.92;68.63;100652.90;;;;-51
2019/05/07 01:28:14;;;;;;;;;;;;;;;6.91;68.67;100651.90;;;;-50
2019/05/07 01:29:14;;;;;;;;;;;;;;;6.91;68.91;100652.70;;;;-51
2019/05/07 01:30:14;;;;;;;;;;;;;;;6.91;68.83;100655.20;;;;-51
2019/05/07 01:31:14;;;;;;;;;;;;;;;6.89;69.02;100653.70;;;;-50
2019/05/07 01:32:27;;;;;;;;;;;;;;;6.89;68.93;100655.80;;;;-51
2019/05/07 01:33:32;;;;;;;;;;;;;;;6.89;69.02;100649.60;;;;-51
2019/05/07 01:34:25;;;;;;;;;;;;;;;6.87;69.60;100649.70;;;;-52
2019/05/07 01:36:00;;;;;;;;;;;;;;;6.87;69.24;100647.80;;;;-52
2019/05/07 01:36:18;;;;;;;;;;;;;;;6.87;69.33;100648.70;;;;-52
2019/05/07 01:37:14;;;;;;;;;;;;;;;6.87;69.07;100645.60;;;;-52
2019/05/07 01:38:15;;;;;;;;;;;;;;;6.87;69.40;100648.70;;;;-49
2019/05/07 01:39:14;;;;;;;;;;;;;;;6.86;68.74;100645.30;;;;-49
2019/05/07 01:40:14;;;;;;;;;;;;;;;6.84;68.64;100646.00;;;;-50
2019/05/07 01:41:14;;;;;;;;;;;;;;;6.84;69.26;100641.80;;;;-51
2019/05/07 01:42:14;;;;;;;;;;;;;;;6.84;69.21;100645.60;;;;-48
2019/05/07 01:43:14;;;;;;;;;;;;;;;6.83;69.19;100645.30;;;;-50
2019/05/07 01:44:14;;;;;;;;;;;;;;;6.83;69.15;100644.70;;;;-52
2019/05/07 01:45:14;;;;;;;;;;;;;;;6.82;69.44;100644.60;;;;-51
2019/05/07 01:46:14;;;;;;;;;;;;;;;6.81;69.06;100647.30;;;;-49
2019/05/07 01:47:14;;;;;;;;;;;;;;;6.79;69.06;100645.30;;;;-51
2019/05/07 01:48:14;;;;;;;;;;;;;;;6.77;69.55;100642.90;;;;-51
2019/05/07 01:49:14;;;;;;;;;;;;;;;6.76;69.54;100642.50;;;;-50
2019/05/07 01:50:14;;;;;;;;;;;;;;;6.74;68.78;100640.00;;;;-50
2019/05/07 01:51:14;;;;;;;;;;;;;;;6.70;68.98;100640.30;;;;-49
2019/05/07 01:52:14;;;;;;;;;;;;;;;6.67;69.55;100640.50;;;;-51
2019/05/07 01:53:14;;;;;;;;;;;;;;;6.66;69.12;100640.70;;;;-54
2019/05/07 01:54:14;;;;;;;;;;;;;;;6.66;69.40;100641.20;;;;-53
2019/05/07 01:55:14;;;;;;;;;;;;;;;6.65;69.07;100638.40;;;;-52
2019/05/07 01:56:14;;;;;;;;;;;;;;;6.64;70.14;100635.70;;;;-53
2019/05/07 01:57:14;;;;;;;;;;;;;;;6.64;70.13;100639.20;;;;-52
2019/05/07 01:58:14;;;;;;;;;;;;;;;6.63;69.72;100636.80;;;;-53
2019/05/07 01:59:14;;;;;;;;;;;;;;;6.62;69.25;100637.40;;;;-51
2019/05/07 02:00:14;;;;;;;;;;;;;;;6.60;69.49;100636.10;;;;-52
2019/05/07 02:01:14;;;;;;;;;;;;;;;6.57;69.85;100633.80;;;;-52
2019/05/07 02:02:24;;;;;;;;;;;;;;;6.54;69.44;100634.10;;;;-52
2019/05/07 02:03:36;;;;;;;;;;;;;;;6.54;69.71;100639.70;;;;-54
2019/05/07 02:04:42;;;;;;;;;;;;;;;6.54;69.36;100638.00;;;;-52
2019/05/07 02:05:42;;;;;;;;;;;;;;;6.55;70.01;100641.40;;;;-53
2019/05/07 02:06:34;;;;;;;;;;;;;;;6.54;70.12;100639.10;;;;-53
2019/05/07 02:07:28;;;;;;;;;;;;;;;6.52;69.61;100637.80;;;;-51
2019/05/07 02:10:29;;;;;;;;;;;;;;;6.49;69.72;100639.90;;;;-53
2019/05/07 02:11:18;;;;;;;;;;;;;;;6.48;70.00;100634.30;;;;-52
2019/05/07 02:12:25;;;;;;;;;;;;;;;6.47;70.46;100639.20;;;;-52
2019/05/07 02:13:14;;;;;;;;;;;;;;;6.47;70.60;100637.10;;;;-53
2019/05/07 02:14:14;;;;;;;;;;;;;;;6.47;69.88;100634.60;;;;-53
2019/05/07 02:15:14;;;;;;;;;;;;;;;6.46;70.37;100638.50;;;;-51
2019/05/07 02:16:14;;;;;;;;;;;;;;;6.47;70.33;100639.60;;;;-53
2019/05/07 02:17:14;;;;;;;;;;;;;;;6.47;70.50;100641.80;;;;-53
2019/05/07 02:18:14;;;;;;;;;;;;;;;6.44;70.39;100641.00;;;;-52
2019/05/07 02:19:14;;;;;;;;;;;;;;;6.42;69.82;100640.70;;;;-53
2019/05/07 02:20:14;;;;;;;;;;;;;;;6.43;70.16;100640.90;;;;-52
2019/05/07 02:21:14;;;;;;;;;;;;;;;6.42;69.69;100640.10;;;;-54
2019/05/07 02:22:14;;;;;;;;;;;;;;;6.41;69.67;100639.50;;;;-53
2019/05/07 02:23:15;;;;;;;;;;;;;;;6.41;70.44;100640.80;;;;-53
2019/05/07 02:24:14;;;;;;;;;;;;;;;6.41;69.97;100639.00;;;;-51
2019/05/07 02:25:14;;;;;;;;;;;;;;;6.40;69.69;100640.10;;;;-52
2019/05/07 02:26:14;;;;;;;;;;;;;;;6.40;69.82;100636.30;;;;-52
2019/05/07 02:27:14;;;;;;;;;;;;;;;6.40;70.46;100635.90;;;;-53
2019/05/07 02:28:14;;;;;;;;;;;;;;;6.40;70.04;100634.40;;;;-52
2019/05/07 02:29:14;;;;;;;;;;;;;;;6.40;69.74;100636.80;;;;-51
2019/05/07 02:30:14;;;;;;;;;;;;;;;6.39;70.00;100634.30;;;;-52
2019/05/07 02:31:14;;;;;;;;;;;;;;;6.40;70.54;100637.40;;;;-52
2019/05/07 02:32:14;;;;;;;;;;;;;;;6.39;70.25;100638.00;;;;-53
2019/05/07 02:33:14;;;;;;;;;;;;;;;6.38;70.24;100636.00;;;;-52
2019/05/07 02:34:14;;;;;;;;;;;;;;;6.37;70.10;100634.40;;;;-52
2019/05/07 02:35:14;;;;;;;;;;;;;;;6.36;70.04;100636.30;;;;-52
2019/05/07 02:36:14;;;;;;;;;;;;;;;6.32;70.24;100640.30;;;;-52
2019/05/07 02:37:20;;;;;;;;;;;;;;;6.30;69.96;100640.90;;;;-52
2019/05/07 02:39:23;;;;;;;;;;;;;;;6.27;70.00;100639.60;;;;-53
2019/05/07 02:40:25;;;;;;;;;;;;;;;6.26;70.09;100634.10;;;;-54
2019/05/07 02:41:23;;;;;;;;;;;;;;;6.24;69.94;100636.70;;;;-49
2019/05/07 02:42:14;;;;;;;;;;;;;;;6.20;70.99;100632.60;;;;-51
2019/05/07 02:43:14;;;;;;;;;;;;;;;6.16;70.94;100633.40;;;;-53
2019/05/07 02:44:14;;;;;;;;;;;;;;;6.15;70.17;100634.30;;;;-52
2019/05/07 02:47:17;;;;;;;;;;;;;;;6.09;71.19;100633.70;;;;-53
2019/05/07 02:48:16;;;;;;;;;;;;;;;6.05;71.52;100638.90;;;;-52
2019/05/07 02:49:32;;;;;;;;;;;;;;;6.05;71.11;100638.70;;;;-52
2019/05/07 02:50:23;;;;;;;;;;;;;;;6.05;71.57;100638.80;;;;-53
2019/05/07 02:51:23;;;;;;;;;;;;;;;5.99;71.19;100636.40;;;;-52
2019/05/07 02:53:24;;;;;;;;;;;;;;;5.93;71.16;100638.30;;;;-53
2019/05/07 02:55:08;;;;;;;;;;;;;;;5.93;71.38;100635.20;;;;-54
2019/05/07 02:55:23;;;;;;;;;;;;;;;5.92;70.88;100638.70;;;;-53
2019/05/07 02:56:14;;;;;;;;;;;;;;;5.90;70.49;100637.20;;;;-52
2019/05/07 02:57:14;;;;;;;;;;;;;;;5.91;71.51;100636.80;;;;-50
2019/05/07 02:58:14;;;;;;;;;;;;;;;5.91;71.18;100638.10;;;;-52
2019/05/07 02:59:14;;;;;;;;;;;;;;;5.90;70.90;100637.10;;;;-53
2019/05/07 03:00:14;;;;;;;;;;;;;;;5.90;71.87;100634.80;;;;-52
2019/05/07 03:01:14;;;;;;;;;;;;;;;5.88;71.38;100636.50;;;;-52
2019/05/07 03:02:14;;;;;;;;;;;;;;;5.78;72.42;100641.80;;;;-52
2019/05/07 03:03:14;;;;;;;;;;;;;;;5.79;72.30;100642.70;;;;-53
2019/05/07 03:04:14;;;;;;;;;;;;;;;5.80;72.13;100642.40;;;;-52
2019/05/07 03:05:14;;;;;;;;;;;;;;;5.81;72.14;100645.00;;;;-49
2019/05/07 03:06:14;;;;;;;;;;;;;;;5.82;71.86;100644.90;;;;-52
2019/05/07 03:07:14;;;;;;;;;;;;;;;5.81;71.57;100646.80;;;;-51
2019/05/07 03:08:14;;;;;;;;;;;;;;;5.81;71.22;100644.60;;;;-51
2019/05/07 03:09:14;;;;;;;;;;;;;;;5.81;71.40;100646.20;;;;-51
2019/05/07 03:10:14;;;;;;;;;;;;;;;5.80;71.10;100648.10;;;;-51
2019/05/07 03:11:14;;;;;;;;;;;;;;;5.79;71.47;100648.90;;;;-50
2019/05/07 03:12:14;;;;;;;;;;;;;;;5.78;71.37;100644.90;;;;-49
2019/05/07 03:13:14;;;;;;;;;;;;;;;5.78;71.86;100646.80;;;;-53
2019/05/07 03:14:14;;;;;;;;;;;;;;;5.77;71.33;100646.90;;;;-50
2019/05/07 03:15:14;;;;;;;;;;;;;;;5.75;71.67;100646.50;;;;-51
2019/05/07 03:16:14;;;;;;;;;;;;;;;5.73;71.84;100644.40;;;;-51
2019/05/07 03:17:14;;;;;;;;;;;;;;;5.72;71.43;100647.50;;;;-51
2019/05/07 03:18:14;;;;;;;;;;;;;;;5.71;71.54;100643.00;;;;-51
2019/05/07 03:19:14;;;;;;;;;;;;;;;5.69;71.51;100644.90;;;;-51
2019/05/07 03:20:21;;;;;;;;;;;;;;;5.69;71.24;100645.50;;;;-49
2019/05/07 03:21:16;;;;;;;;;;;;;;;5.69;71.76;100648.90;;;;-51
2019/05/07 03:22:14;;;;;;;;;;;;;;;5.69;71.31;100644.70;;;;-52
2019/05/07 03:23:18;;;;;;;;;;;;;;;5.71;72.00;100649.90;;;;-50
2019/05/07 03:24:23;;;;;;;;;;;;;;;5.69;72.13;100650.60;;;;-51
2019/05/07 03:25:21;;;;;;;;;;;;;;;5.69;71.51;100647.90;;;;-50
2019/05/07 03:26:20;;;;;;;;;;;;;;;5.70;71.55;100648.80;;;;-51
2019/05/07 03:27:14;;;;;;;;;;;;;;;5.70;72.24;100647.50;;;;-50
2019/05/07 03:28:14;;;;;;;;;;;;;;;5.70;72.66;100647.90;;;;-51
2019/05/07 03:29:19;;;;;;;;;;;;;;;5.71;71.88;100648.30;;;;-51
2019/05/07 03:30:31;;;;;;;;;;;;;;;5.70;71.56;100647.00;;;;-51
2019/05/07 03:31:17;;;;;;;;;;;;;;;5.71;71.95;100651.30;;;;-54
2019/05/07 03:33:26;;;;;;;;;;;;;;;5.69;71.82;100648.30;;;;-53
2019/05/07 03:34:39;;;;;;;;;;;;;;;5.68;71.93;100649.20;;;;-52
2019/05/07 03:37:12;;;;;;;;;;;;;;;5.67;71.80;100654.50;;;;-52
2019/05/07 03:37:19;;;;;;;;;;;;;;;5.64;72.11;100648.90;;;;-53
2019/05/07 03:38:14;;;;;;;;;;;;;;;5.64;71.65;100648.10;;;;-52
2019/05/07 03:39:14;;;;;;;;;;;;;;;5.65;72.27;100647.60;;;;-52
2019/05/07 03:40:14;;;;;;;;;;;;;;;5.65;71.93;100651.50;;;;-53
2019/05/07 03:41:14;;;;;;;;;;;;;;;5.65;72.38;100648.30;;;;-53
2019/05/07 03:42:14;;;;;;;;;;;;;;;5.65;72.33;100650.30;;;;-50
2019/05/07 03:43:15;;;;;;;;;;;;;;;5.65;71.75;100648.80;;;;-50
2019/05/07 03:44:37;;;;;;;;;;;;;;;5.66;72.45;100652.80;;;;-52
2019/05/07 03:47:15;;;;;;;;;;;;;;;5.65;72.60;100653.60;;;;-53
2019/05/07 03:47:30;;;;;;;;;;;;;;;5.64;71.84;100651.90;;;;-53
2019/05/07 03:48:21;;;;;;;;;;;;;;;5.62;72.07;100649.40;;;;-52
2019/05/07 03:49:26;;;;;;;;;;;;;;;5.63;72.70;100654.60;;;;-51
2019/05/07 03:50:18;;;;;;;;;;;;;;;5.63;72.91;100648.40;;;;-51
2019/05/07 03:51:18;;;;;;;;;;;;;;;5.63;72.44;100648.50;;;;-51
2019/05/07 03:52:18;;;;;;;;;;;;;;;5.62;72.80;100648.40;;;;-52
2019/05/07 03:53:18;;;;;;;;;;;;;;;5.61;72.76;100647.70;;;;-52
2019/05/07 03:54:18;;;;;;;;;;;;;;;5.56;72.51;100647.40;;;;-53
2019/05/07 03:55:18;;;;;;;;;;;;;;;5.56;71.97;100645.80;;;;-50
2019/05/07 03:56:18;;;;;;;;;;;;;;;5.55;72.16;100643.80;;;;-50
2019/05/07 03:57:18;;;;;;;;;;;;;;;5.51;72.09;100647.70;;;;-52
2019/05/07 03:58:18;;;;;;;;;;;;;;;5.50;71.89;100648.80;;;;-52
2019/05/07 03:59:18;;;;;;;;;;;;;;;5.49;72.42;100649.30;;;;-51
2019/05/07 04:00:18;;;;;;;;;;;;;;;5.49;72.62;100651.40;;;;-52
2019/05/07 04:01:18;;;;;;;;;;;;;;;5.49;72.60;100646.70;;;;-51
2019/05/07 04:02:18;;;;;;;;;;;;;;;5.50;72.64;100647.20;;;;-50
2019/05/07 04:03:18;;;;;;;;;;;;;;;5.50;72.43;100650.90;;;;-51
2019/05/07 04:04:18;;;;;;;;;;;;;;;5.50;73.09;100649.90;;;;-51
2019/05/07 04:05:18;;;;;;;;;;;;;;;5.50;72.62;100651.10;;;;-49
2019/05/07 04:06:18;;;;;;;;;;;;;;;5.49;72.03;100654.30;;;;-52
2019/05/07 04:07:18;;;;;;;;;;;;;;;5.48;71.85;100652.30;;;;-51
2019/05/07 04:08:18;;;;;;;;;;;;;;;5.46;71.83;100654.40;;;;-52
2019/05/07 04:09:18;;;;;;;;;;;;;;;5.43;71.98;100654.20;;;;-51
2019/05/07 04:10:18;;;;;;;;;;;;;;;5.41;71.79;100651.40;;;;-51
2019/05/07 04:11:18;;;;;;;;;;;;;;;5.40;71.72;100652.20;;;;-53
2019/05/07 04:12:18;;;;;;;;;;;;;;;5.38;72.01;100650.20;;;;-52
2019/05/07 04:13:18;;;;;;;;;;;;;;;5.36;71.76;100651.90;;;;-52
2019/05/07 04:14:18;;;;;;;;;;;;;;;5.35;71.60;100655.80;;;;-52
2019/05/07 04:15:18;;;;;;;;;;;;;;;5.34;71.81;100657.20;;;;-52
2019/05/07 04:16:18;;;;;;;;;;;;;;;5.34;71.90;100656.40;;;;-52
2019/05/07 04:17:18;;;;;;;;;;;;;;;5.32;71.45;100651.90;;;;-50
2019/05/07 04:18:18;;;;;;;;;;;;;;;5.32;71.49;100659.00;;;;-50
2019/05/07 04:19:18;;;;;;;;;;;;;;;5.32;71.62;100661.40;;;;-50
2019/05/07 04:20:18;;;;;;;;;;;;;;;5.33;72.24;100661.90;;;;-51
2019/05/07 04:21:18;;;;;;;;;;;;;;;5.31;72.18;100661.80;;;;-51
2019/05/07 04:22:18;;;;;;;;;;;;;;;5.29;72.26;100661.50;;;;-51
2019/05/07 04:23:18;;;;;;;;;;;;;;;5.30;71.87;100658.10;;;;-52
2019/05/07 04:24:39;;;;;;;;;;;;;;;5.30;72.11;100657.80;;;;-50
2019/05/07 04:26:34;;;;;;;;;;;;;;;5.26;72.27;100657.40;;;;-52
2019/05/07 04:27:32;;;;;;;;;;;;;;;5.24;72.30;100654.10;;;;-53
2019/05/07 04:29:13;;;;;;;;;;;;;;;5.24;71.89;100660.00;;;;-52
2019/05/07 04:29:18;;;;;;;;;;;;;;;5.24;71.85;100659.90;;;;-53
2019/05/07 04:30:18;;;;;;;;;;;;;;;5.23;72.62;100660.70;;;;-52
2019/05/07 04:31:18;;;;;;;;;;;;;;;5.19;72.55;100658.50;;;;-52
2019/05/07 04:32:20;;;;;;;;;;;;;;;5.18;72.19;100658.60;;;;-49
2019/05/07 04:33:19;;;;;;;;;;;;;;;5.17;72.34;100661.20;;;;-51
2019/05/07 04:35:27;;;;;;;;;;;;;;;5.16;72.94;100661.00;;;;-51
2019/05/07 04:36:26;;;;;;;;;;;;;;;5.16;72.80;100664.70;;;;-51
2019/05/07 04:37:18;;;;;;;;;;;;;;;5.15;72.89;100668.50;;;;-51
2019/05/07 04:38:18;;;;;;;;;;;;;;;5.13;72.54;100665.90;;;;-53
2019/05/07 04:39:18;;;;;;;;;;;;;;;5.13;72.65;100666.30;;;;-51
2019/05/07 04:40:18;;;;;;;;;;;;;;;5.14;73.44;100666.80;;;;-54
2019/05/07 04:41:18;;;;;;;;;;;;;;;5.15;73.06;100664.30;;;;-50
2019/05/07 04:42:18;;;;;;;;;;;;;;;5.14;72.64;100665.50;;;;-51
2019/05/07 04:43:18;;;;;;;;;;;;;;;5.13;72.65;100665.30;;;;-50
2019/05/07 04:44:18;;;;;;;;;;;;;;;5.13;72.66;100662.30;;;;-52
2019/05/07 04:45:18;;;;;;;;;;;;;;;5.13;73.59;100658.90;;;;-51
2019/05/07 04:46:18;;;;;;;;;;;;;;;5.11;73.84;100660.80;;;;-51
2019/05/07 04:47:18;;;;;;;;;;;;;;;5.11;73.80;100660.30;;;;-52
2019/05/07 04:48:18;;;;;;;;;;;;;;;5.11;73.05;100657.90;;;;-52
2019/05/07 04:49:18;;;;;;;;;;;;;;;5.13;72.75;100659.00;;;;-52
2019/05/07 04:50:21;;;;;;;;;;;;;;;5.11;73.31;100658.50;;;;-48
2019/05/07 04:51:34;;;;;;;;;;;;;;;5.09;73.60;100657.40;;;;-52
2019/05/07 04:52:32;;;;;;;;;;;;;;;5.07;73.48;100659.50;;;;-53
2019/05/07 04:53:18;;;;;;;;;;;;;;;5.06;73.54;100658.30;;;;-51
2019/05/07 04:54:18;;;;;;;;;;;;;;;5.05;73.20;100661.40;;;;-49
2019/05/07 04:55:18;;;;;;;;;;;;;;;5.02;73.08;100663.00;;;;-51
2019/05/07 04:56:18;;;;;;;;;;;;;;;5.03;73.58;100663.90;;;;-51
2019/05/07 04:57:25;;;;;;;;;;;;;;;5.03;73.81;100662.90;;;;-51
2019/05/07 04:58:18;;;;;;;;;;;;;;;5.02;73.70;100663.00;;;;-52
2019/05/07 04:59:18;;;;;;;;;;;;;;;5.01;74.19;100665.40;;;;-52
2019/05/07 05:00:18;;;;;;;;;;;;;;;5.02;73.73;100668.90;;;;-52
2019/05/07 05:01:19;;;;;;;;;;;;;;;5.03;73.30;100669.00;;;;-52
2019/05/07 05:02:19;;;;;;;;;;;;;;;5.03;73.64;100670.80;;;;-52
2019/05/07 05:03:22;;;;;;;;;;;;;;;5.05;73.13;100668.30;;;;-51
2019/05/07 05:04:18;;;;;;;;;;;;;;;5.04;74.28;100670.60;;;;-50
2019/05/07 05:05:18;;;;;;;;;;;;;;;5.04;73.51;100668.10;;;;-51
2019/05/07 05:06:18;;;;;;;;;;;;;;;5.06;73.21;100670.90;;;;-53
2019/05/07 05:07:18;;;;;;;;;;;;;;;5.07;73.14;100672.10;;;;-52
2019/05/07 05:08:18;;;;;;;;;;;;;;;5.05;74.22;100670.10;;;;-52
2019/05/07 05:09:18;;;;;;;;;;;;;;;5.07;74.23;100667.80;;;;-50
2019/05/07 05:10:18;;;;;;;;;;;;;;;5.10;73.98;100669.20;;;;-52
2019/05/07 05:11:18;;;;;;;;;;;;;;;5.10;74.62;100668.70;;;;-51
2019/05/07 05:12:18;;;;;;;;;;;;;;;5.12;74.11;100667.20;;;;-54
2019/05/07 05:13:18;;;;;;;;;;;;;;;5.14;74.11;100667.00;;;;-54
2019/05/07 05:14:18;;;;;;;;;;;;;;;5.14;74.55;100660.60;;;;-54
2019/05/07 05:15:18;;;;;;;;;;;;;;;5.17;74.07;100656.50;;;;-53
2019/05/07 05:16:24;;;;;;;;;;;;;;;5.19;73.90;100656.40;;;;-54
2019/05/07 05:17:18;;;;;;;;;;;;;;;5.21;73.88;100658.80;;;;-54
2019/05/07 05:18:18;;;;;;;;;;;;;;;5.24;74.06;100663.90;;;;-54
2019/05/07 05:19:18;;;;;;;;;;;;;;;5.25;74.18;100659.50;;;;-53
2019/05/07 05:20:25;;;;;;;;;;;;;;;5.26;73.79;100662.90;;;;-52
2019/05/07 05:21:44;;;;;;;;;;;;;;;5.27;74.25;100656.80;;;;-53
2019/05/07 05:24:06;;;;;;;;;;;;;;;5.29;74.49;100659.00;;;;-54
2019/05/07 05:25:56;;;;;;;;;;;;;;;5.31;73.89;100659.50;;;;-53
2019/05/07 05:26:56;;;;;;;;;;;;;;;5.34;74.74;100661.30;;;;-52
2019/05/07 05:27:56;;;;;;;;;;;;;;;5.37;74.29;100661.20;;;;-53
2019/05/07 05:28:56;;;;;;;;;;;;;;;5.39;74.33;100662.60;;;;-53
2019/05/07 05:29:56;;;;;;;;;;;;;;;5.40;74.64;100661.30;;;;-53
2019/05/07 05:30:57;;;;;;;;;;;;;;;5.41;75.08;100662.90;;;;-51
2019/05/07 05:31:56;;;;;;;;;;;;;;;5.43;74.68;100661.60;;;;-54
2019/05/07 05:32:56;;;;;;;;;;;;;;;5.46;74.73;100663.60;;;;-50
2019/05/07 05:33:56;;;;;;;;;;;;;;;5.47;75.02;100663.80;;;;-50
2019/05/07 05:35:06;;;;;;;;;;;;;;;5.48;74.90;100666.00;;;;-52
2019/05/07 05:35:56;;;;;;;;;;;;;;;5.49;74.48;100668.70;;;;-53
2019/05/07 05:36:56;;;;;;;;;;;;;;;5.49;74.94;100668.00;;;;-51
2019/05/07 05:37:56;;;;;;;;;;;;;;;5.51;73.91;100667.60;;;;-52
2019/05/07 05:38:56;;;;;;;;;;;;;;;5.54;74.10;100667.70;;;;-52
2019/05/07 05:39:56;;;;;;;;;;;;;;;5.56;74.61;100668.10;;;;-51
2019/05/07 05:40:56;;;;;;;;;;;;;;;5.58;74.54;100665.20;;;;-53
2019/05/07 05:42:14;;;;;;;;;;;;;;;5.58;74.49;100665.30;;;;-53
2019/05/07 05:43:10;;;;;;;;;;;;;;;5.59;74.32;100662.30;;;;-51
2019/05/07 05:44:03;;;;;;;;;;;;;;;5.62;73.76;100665.30;;;;-51
2019/05/07 05:44:56;;;;;;;;;;;;;;;5.64;74.64;100659.70;;;;-54
2019/05/07 05:45:58;;;;;;;;;;;;;;;5.64;74.39;100664.00;;;;-51
2019/05/07 05:46:56;;;;;;;;;;;;;;;5.66;74.40;100660.00;;;;-52
2019/05/07 05:47:56;;;;;;;;;;;;;;;5.69;73.95;100656.50;;;;-52
2019/05/07 05:48:56;;;;;;;;;;;;;;;5.72;74.42;100658.70;;;;-51
2019/05/07 05:49:56;;;;;;;;;;;;;;;5.74;74.46;100657.90;;;;-52
2019/05/07 05:52:48;;;;;;;;;;;;;;;5.78;74.21;100655.50;;;;-54
2019/05/07 05:53:53;;;;;;;;;;;;;;;5.80;74.44;100657.50;;;;-53
2019/05/07 05:54:49;;;;;;;;;;;;;;;5.84;74.19;100658.00;;;;-51
2019/05/07 05:55:37;;;;;;;;;;;;;;;5.87;74.34;100656.90;;;;-51
2019/05/07 05:56:46;;;;;;;;;;;;;;;5.88;74.39;100657.30;;;;-52
2019/05/07 05:59:28;;;;;;;;;;;;;;;5.93;73.99;100658.60;;;;-52
2019/05/07 05:59:54;;;;;;;;;;;;;;;5.96;73.92;100659.40;;;;-51
2019/05/07 06:01:04;;;;;;;;;;;;;;;5.99;73.55;100659.30;;;;-52
2019/05/07 06:03:26;;;;;;;;;;;;;;;6.02;73.65;100662.60;;;;-52
2019/05/07 06:04:02;;;;;;;;;;;;;;;6.08;73.38;100662.80;;;;-54
2019/05/07 06:04:40;;;;;;;;;;;;;;;6.11;73.80;100660.90;;;;-52
2019/05/07 06:06:47;;;;;;;;;;;;;;;6.19;73.87;100660.40;;;;-52
2019/05/07 06:07:37;;;;;;;;;;;;;;;6.23;73.36;100659.40;;;;-53
2019/05/07 06:09:26;;;;;;;;;;;;;;;6.27;74.03;100665.00;;;;-52
2019/05/07 06:09:39;;;;;;;;;;;;;;;6.30;73.87;100659.40;;;;-52
2019/05/07 06:11:02;;;;;;;;;;;;;;;6.31;73.61;100663.30;;;;-51
2019/05/07 06:13:27;;;;;;;;;;;;;;;6.39;73.40;100662.70;;;;-53
2019/05/07 06:14:21;;;;;;;;;;;;;;;6.41;73.43;100662.60;;;;-52
2019/05/07 06:16:14;;;;;;;;;;;;;;;6.44;73.09;100661.70;;;;-52
2019/05/07 06:16:23;;;;;;;;;;;;;;;6.48;73.25;100657.40;;;;-53
2019/05/07 06:19:15;;;;;;;;;;;;;;;6.51;73.61;100658.90;;;;-51
2019/05/07 06:19:36;;;;;;;;;;;;;;;6.58;73.56;100661.10;;;;-56
2019/05/07 06:21:04;;;;;;;;;;;;;;;6.63;74.10;100662.60;;;;-54
2019/05/07 06:21:28;;;;;;;;;;;;;;;6.66;74.07;100659.60;;;;-53
2019/05/07 06:24:30;;;;;;;;;;;;;;;6.78;73.33;100658.40;;;;-52
2019/05/07 06:25:21;;;;;;;;;;;;;;;6.81;72.97;100661.60;;;;-53
2019/05/07 06:26:17;;;;;;;;;;;;;;;6.83;73.12;100664.70;;;;-53
2019/05/07 06:27:17;;;;;;;;;;;;;;;6.86;73.25;100665.90;;;;-54
2019/05/07 06:28:17;;;;;;;;;;;;;;;6.89;72.87;100664.30;;;;-54
2019/05/07 06:29:17;;;;;;;;;;;;;;;6.93;72.78;100664.10;;;;-53
2019/05/07 06:30:17;;;;;;;;;;;;;;;6.95;72.84;100666.60;;;;-55
2019/05/07 06:31:17;;;;;;;;;;;;;;;6.98;72.74;100668.20;;;;-52
2019/05/07 06:32:18;;;;;;;;;;;;;;;7.00;72.76;100670.40;;;;-54
2019/05/07 06:33:17;;;;;;;;;;;;;;;7.02;72.61;100667.00;;;;-55
2019/05/07 06:34:17;;;;;;;;;;;;;;;7.03;72.55;100666.70;;;;-54
2019/05/07 06:35:17;;;;;;;;;;;;;;;7.06;72.26;100667.30;;;;-54
2019/05/07 06:36:17;;;;;;;;;;;;;;;7.08;72.15;100665.50;;;;-53
2019/05/07 06:37:17;;;;;;;;;;;;;;;7.10;72.14;100666.70;;;;-53
2019/05/07 06:38:17;;;;;;;;;;;;;;;7.12;72.99;100668.70;;;;-54
2019/05/07 06:39:25;;;;;;;;;;;;;;;7.13;72.61;100665.70;;;;-55
2019/05/07 06:44:10;;;;;;;;;;;;;;;7.23;72.38;100661.00;;;;-54
2019/05/07 06:45:19;;;;;;;;;;;;;;;7.25;72.48;100665.60;;;;-51
2019/05/07 06:46:02;;;;;;;;;;;;;;;7.28;72.51;100663.40;;;;-50
2019/05/07 06:47:01;;;;;;;;;;;;;;;7.31;72.32;100657.80;;;;-51
2019/05/07 06:48:01;;;;;;;;;;;;;;;7.34;71.88;100660.70;;;;-51
2019/05/07 06:49:01;;;;;;;;;;;;;;;7.37;71.56;100658.80;;;;-52